Varrelbusch Airport

EDWU · 下萨克森, 德国

使用的TAF站离机场有41 km的距离
2024年5月22日 07:002024年5月22日 16:00有效
时间
星期三
07:00
>40%
星期三
08:00
>40%
星期三
09:00
>40%
星期三
10:00
>40%
星期三
11:00
>40%
星期三
12:00
>40%
星期三
13:00
>40%
星期三
14:00
>40%
星期三
15:00
>40%
代码
IFR
IFR
IFR
IFR
IFR
IFR
IFR
IFR
IFR
天气
光 雨
光 雨
光 雨
光 雨
光 雨
光 雨
光 雨
光 雨
光 雨
光 雨
光 雨
光 雨
光 雨
光 雨
光 雨
光 雨
光 雨
光 雨
能见度
4 km
4 km
4 km
4 km
4 km
4 km
4 km
4 km
4 km
天花板
700 ft
700 ft
700 ft
700 ft
700 ft
700 ft
700 ft
700 ft
700 ft
200°
200°
200°
200°
200°
200°
200°
200°
200°
200°
200°
200°
200°
200°
200°
200°
200°
200°
速度
15 kt
15 kt
15 kt
15 kt
15 kt
15 kt
15 kt
15 kt
15 kt
阵风
温度/星期日

原版的

TAF ETND 220405Z 2205/2214 22010KT 9000 -RA SCT020 BKN060
TEMPO 2205/2214 20015KT 4000 RA BKN007

TAF Varrelbusch Airport

Varrelbusch Airport是,德国中的小机场。 该机场位于纬度52,90888和经度8,04262。 该机场有一条跑道: 9/27. 本场的ICAO机场代码为EDWU。 该机场的IATA代码为VAC。 机场在Bremen FIR中。

该航空气象观测是针对Diepholz Air Base在2024年5月22日 06:05, 当地时间进行的。 从2024年5月22日 07:00到2024年5月22日 16:00, 当地时间有效.

预报

  • 在星期三 07:00和16:00之间

    • 风: 风来自220°方向,速度为10 kt。
    • 能见度: 9 km
    • 天气: 光 雨
    • 乌云: 疏云,零星散落的云朵在2.000 ft的高度 和 碎云在6.000 ft的高度.
  • 暂时在星期三 07:00和16:00之间

    • 风: 风来自200°方向,速度为15 kt。
    • 能见度: 4 km
    • 天气: 雨
    • 乌云: 碎云在700 ft的高度.

白天

今天,太阳从05:18升起,在21:30降落。 这适用于Varrelbusch Airport,世界夏令时可能有所不同。 当地时间与世界标准时间之间的时差为+2 小时。 夏令时目前正在进行中。

报告变更